createdAt,value
2019-05-14T00:01:07.963Z,98380.71
2019-05-14T00:06:12.963Z,98386.48
2019-05-14T00:11:18.271Z,98383.45
2019-05-14T00:16:24.335Z,98389.59
2019-05-14T00:21:31.602Z,98389.89
2019-05-14T00:26:36.699Z,98383.82
2019-05-14T00:31:42.730Z,98375.89
2019-05-14T00:36:48.293Z,98369.13
2019-05-14T00:41:53.402Z,98362.13
2019-05-14T00:46:58.590Z,98359.09
2019-05-14T00:52:03.769Z,98356.88
2019-05-14T00:57:11.583Z,98357.09
2019-05-14T01:02:16.022Z,98359.66
2019-05-14T01:07:21.350Z,98356.80
2019-05-14T01:12:26.552Z,98354.00
2019-05-14T01:17:32.028Z,98349.41
2019-05-14T01:22:37.729Z,98344.98
2019-05-14T01:27:43.459Z,98337.20
2019-05-14T01:32:51.051Z,98327.20
2019-05-14T01:37:56.266Z,98324.60
2019-05-14T01:43:02.754Z,98318.63
2019-05-14T01:48:08.474Z,98314.66
2019-05-14T01:53:13.951Z,98318.72
2019-05-14T01:58:21.876Z,98315.16
2019-05-14T02:03:27.085Z,98312.62
2019-05-14T02:08:32.506Z,98311.60
2019-05-14T02:13:37.977Z,98305.50
2019-05-14T02:18:43.913Z,98305.03
2019-05-14T02:23:51.249Z,98300.33
2019-05-14T02:28:55.762Z,98302.01
2019-05-14T02:34:01.112Z,98299.23
2019-05-14T02:39:10.155Z,98301.74
2019-05-14T02:44:18.642Z,98298.71
2019-05-14T02:49:22.282Z,98286.06
2019-05-14T02:54:29.759Z,98282.77
2019-05-14T02:59:34.169Z,98280.38
2019-05-14T03:04:39.987Z,98272.10
2019-05-14T03:09:45.321Z,98273.14
2019-05-14T03:14:51.001Z,98274.73
2019-05-14T03:19:59.867Z,98272.25
2019-05-14T03:25:03.756Z,98268.13
2019-05-14T03:30:12.270Z,98267.67
2019-05-14T03:35:22.550Z,98264.17
2019-05-14T03:40:23.263Z,98262.67
2019-05-14T03:45:30.097Z,98263.60
2019-05-14T03:50:38.740Z,98256.89
2019-05-14T03:55:42.618Z,98254.14
2019-05-14T04:00:50.978Z,98254.30
2019-05-14T04:05:59.330Z,98253.53
2019-05-14T04:11:05.052Z,98249.46
2019-05-14T04:16:13.331Z,98258.39
2019-05-14T04:21:21.043Z,98251.80
2019-05-14T04:26:30.199Z,98242.70
2019-05-14T04:31:34.554Z,98244.94
2019-05-14T04:36:40.426Z,98247.75
2019-05-14T04:41:45.992Z,98252.09
2019-05-14T04:46:51.431Z,98250.00
2019-05-14T04:51:59.591Z,98255.11
2019-05-14T04:57:03.357Z,98259.62
2019-05-14T05:02:09.754Z,98263.14
2019-05-14T05:07:15.282Z,98262.53
2019-05-14T05:12:20.461Z,98259.42
2019-05-14T05:17:40.013Z,98256.27
2019-05-14T05:22:33.056Z,98251.59
2019-05-14T05:27:38.928Z,98250.95
2019-05-14T05:32:44.508Z,98252.73
2019-05-14T05:37:49.633Z,98247.41
2019-05-14T05:42:54.734Z,98251.29
2019-05-14T05:48:01.794Z,98247.61
2019-05-14T05:53:09.017Z,98244.92
2019-05-14T05:58:14.451Z,98250.36
2019-05-14T06:03:20.932Z,98242.73
2019-05-14T06:08:28.266Z,98236.88
2019-05-14T06:13:33.697Z,98234.00
2019-05-14T06:18:39.639Z,98235.73
2019-05-14T06:23:44.737Z,98236.50
2019-05-14T06:28:49.992Z,98229.31
2019-05-14T06:33:55.974Z,98222.81
2019-05-14T06:39:01.116Z,98223.62
2019-05-14T06:44:06.261Z,98220.91
2019-05-14T06:49:11.735Z,98216.75
2019-05-14T06:54:19.631Z,98218.62
2019-05-14T06:59:24.187Z,98215.13
2019-05-14T07:04:29.376Z,98217.63
2019-05-14T07:09:35.119Z,98217.64
2019-05-14T07:14:40.515Z,98217.73
2019-05-14T07:19:48.757Z,98211.28
2019-05-14T07:24:53.140Z,98206.31
2019-05-14T07:29:58.494Z,98200.94
2019-05-14T07:35:04.118Z,98199.53
2019-05-14T07:40:10.436Z,98198.90
2019-05-14T07:45:18.496Z,98189.87
2019-05-14T07:50:23.708Z,98190.30
2019-05-14T07:55:29.275Z,98195.08
2019-05-14T08:00:34.523Z,98182.71
2019-05-14T08:05:39.944Z,98190.09
2019-05-14T08:10:45.106Z,98193.50
2019-05-14T08:15:50.605Z,98185.00
2019-05-14T08:20:55.884Z,98180.77
2019-05-14T08:26:03.801Z,98181.47
2019-05-14T08:31:09.477Z,98169.70
2019-05-14T08:36:14.904Z,98160.91
2019-05-14T08:41:20.201Z,98158.92
2019-05-14T08:46:25.306Z,98164.36
2019-05-14T08:51:30.597Z,98161.29
2019-05-14T08:56:38.738Z,98147.81
2019-05-14T09:01:57.422Z,98150.31
2019-05-14T09:06:50.335Z,98140.03
2019-05-14T09:11:55.826Z,98137.63
2019-05-14T09:17:00.835Z,98135.66
2019-05-14T09:22:06.247Z,98127.27
2019-05-14T09:27:11.561Z,98127.22
2019-05-14T09:32:19.096Z,98113.60
2019-05-14T09:37:24.029Z,98122.34
2019-05-14T09:42:29.160Z,98123.00
2019-05-14T09:47:34.519Z,98120.66
2019-05-14T09:52:40.110Z,98126.03
2019-05-14T09:57:45.177Z,98121.36
2019-05-14T10:02:50.715Z,98114.18
2019-05-14T10:07:56.266Z,98112.38
2019-05-14T10:13:01.899Z,98107.89
2019-05-14T10:18:11.883Z,98091.89
2019-05-14T10:23:14.242Z,98093.54
2019-05-14T10:28:19.540Z,98091.88
2019-05-14T10:33:25.286Z,98093.98
2019-05-14T10:38:30.646Z,98083.83
2019-05-14T10:43:35.932Z,98084.06
2019-05-14T10:48:41.294Z,98060.37
2019-05-14T10:53:48.841Z,98063.08
2019-05-14T10:58:53.352Z,98054.33
2019-05-14T11:03:58.922Z,98046.61
2019-05-14T11:09:05.900Z,98043.75
2019-05-14T11:14:11.051Z,98030.05
2019-05-14T11:19:18.655Z,98025.87
2019-05-14T11:24:24.130Z,98025.95
2019-05-14T11:29:29.811Z,98003.80
2019-05-14T11:34:35.159Z,97993.58
2019-05-14T11:39:40.917Z,97987.36
2019-05-14T11:44:48.643Z,97993.91
2019-05-14T11:49:53.314Z,97995.48
2019-05-14T11:54:58.613Z,97991.92
2019-05-14T12:00:04.907Z,97991.23
2019-05-14T12:05:10.430Z,97983.30
2019-05-14T12:10:18.429Z,97969.15
2019-05-14T12:15:22.895Z,97958.76
2019-05-14T12:20:29.643Z,97946.77
2019-05-14T12:25:35.391Z,97959.20
2019-05-14T12:30:40.958Z,97965.48
2019-05-14T12:35:49.235Z,97963.03
2019-05-14T12:40:53.615Z,97961.36
2019-05-14T12:45:59.607Z,97944.64
2019-05-14T12:51:05.043Z,97933.71
2019-05-14T12:56:10.639Z,97930.55
2019-05-14T13:01:15.742Z,97926.09
2019-05-14T13:06:20.951Z,97915.27
2019-05-14T13:11:26.094Z,97914.47
2019-05-14T13:16:31.540Z,97896.74
2019-05-14T13:21:38.913Z,97908.59
2019-05-14T13:26:44.087Z,97902.00
2019-05-14T13:31:49.800Z,97897.53
2019-05-14T13:36:54.935Z,97885.06
2019-05-14T13:42:00.414Z,97880.77
2019-05-14T13:47:05.607Z,97875.52
2019-05-14T13:52:10.765Z,97874.58
2019-05-14T13:57:19.159Z,97874.94
2019-05-14T14:02:23.394Z,97861.24
2019-05-14T14:07:28.849Z,97862.23
2019-05-14T14:12:34.162Z,97881.00
2019-05-14T14:17:39.895Z,97879.03
2019-05-14T14:22:48.886Z,97868.63
2019-05-14T14:27:53.205Z,97852.33
2019-05-14T14:32:58.863Z,97850.70
2019-05-14T14:38:04.535Z,97839.54
2019-05-14T14:43:10.196Z,97848.62
2019-05-14T14:48:15.459Z,97857.95
2019-05-14T14:53:40.868Z,97843.95
2019-05-14T14:58:28.627Z,97850.91
2019-05-14T15:03:33.819Z,97846.69
2019-05-14T15:08:39.685Z,97835.57
2019-05-14T15:13:45.186Z,97842.76
2019-05-14T15:18:50.452Z,97841.98
2019-05-14T15:24:07.231Z,97839.98
2019-05-14T15:29:03.111Z,97828.00
2019-05-14T15:34:09.005Z,97819.72
2019-05-14T15:39:14.879Z,97825.44
2019-05-14T15:44:20.239Z,97815.97
2019-05-14T15:49:28.208Z,97819.16
2019-05-14T15:54:42.274Z,97809.84
2019-05-14T15:59:39.724Z,97809.52
2019-05-14T16:04:45.192Z,97818.93
2019-05-14T16:09:50.479Z,97811.84
2019-05-14T16:14:55.856Z,97816.48
2019-05-14T16:20:01.639Z,97819.30
2019-05-14T16:25:08.923Z,97810.88
2019-05-14T16:30:14.571Z,97815.28
2019-05-14T16:35:21.239Z,97810.56
2019-05-14T16:40:28.799Z,97811.98
2019-05-14T16:45:33.637Z,97804.56
2019-05-14T16:50:39.010Z,97814.41
2019-05-14T16:55:44.386Z,97806.59
2019-05-14T17:00:49.491Z,97801.31
2019-05-14T17:05:55.298Z,97804.75
2019-05-14T17:11:00.946Z,97809.38
2019-05-14T17:16:08.526Z,97811.34
2019-05-14T17:21:13.865Z,97805.22
2019-05-14T17:26:19.519Z,97806.39
2019-05-14T17:31:31.096Z,97808.02
2019-05-14T17:36:38.810Z,97805.11
2019-05-14T17:41:43.347Z,97862.48
2019-05-14T17:46:49.073Z,97862.48
2019-05-14T17:51:54.440Z,97883.52
2019-05-14T17:57:00.348Z,97881.22
2019-05-14T18:02:05.574Z,97877.28
2019-05-14T18:07:10.994Z,97879.49
2019-05-14T18:12:18.538Z,97879.49
2019-05-14T18:17:23.226Z,97868.80
2019-05-14T18:22:28.972Z,97865.00
2019-05-14T18:27:34.069Z,97864.95
2019-05-14T18:32:39.492Z,97870.41
2019-05-14T18:37:44.624Z,97865.77
2019-05-14T18:42:50.317Z,97866.56
2019-05-14T18:47:55.676Z,97878.45
2019-05-14T18:53:00.843Z,97880.16
2019-05-14T18:58:08.423Z,97882.47
2019-05-14T19:03:13.481Z,97880.06
2019-05-14T19:08:19.250Z,97884.70
2019-05-14T19:13:24.802Z,97884.38
2019-05-14T19:18:30.221Z,97885.52
2019-05-14T19:23:35.405Z,97887.23
2019-05-14T19:28:40.846Z,97880.45
2019-05-14T19:33:45.872Z,97884.24
2019-05-14T19:38:50.996Z,97883.30
2019-05-14T19:43:56.588Z,97880.69
2019-05-14T19:49:02.030Z,97888.45
2019-05-14T19:54:08.304Z,97888.45
2019-05-14T19:59:13.655Z,97890.90
2019-05-14T20:04:19.166Z,97893.55
2019-05-14T20:09:24.515Z,97883.52
2019-05-14T20:14:29.604Z,97882.01
2019-05-14T20:19:35.300Z,97877.55
2019-05-14T20:24:41.786Z,97880.74
2019-05-14T20:29:48.713Z,97875.74
2019-05-14T20:34:54.250Z,97871.79
2019-05-14T20:39:59.322Z,97869.92
2019-05-14T20:45:04.980Z,97874.36
2019-05-14T20:50:10.378Z,97872.39
2019-05-14T20:55:18.448Z,97875.39
2019-05-14T21:00:22.961Z,97863.16
2019-05-14T21:05:28.809Z,97851.91
2019-05-14T21:10:33.995Z,97849.45
2019-05-14T21:15:39.396Z,97857.23
2019-05-14T21:20:45.133Z,97848.41
2019-05-14T21:25:50.893Z,97844.19
2019-05-14T21:30:56.393Z,97845.70
2019-05-14T21:36:01.508Z,97839.37
2019-05-14T21:41:06.794Z,97833.22
2019-05-14T21:46:12.665Z,97836.25
2019-05-14T21:51:18.307Z,97833.03
2019-05-14T21:56:23.449Z,97837.03
2019-05-14T22:01:31.073Z,97832.11
2019-05-14T22:06:38.350Z,97837.59
2019-05-14T22:11:43.241Z,97840.62
2019-05-14T22:16:48.814Z,97839.30
2019-05-14T22:21:53.989Z,97842.50
2019-05-14T22:26:59.331Z,97841.72
2019-05-14T22:32:05.162Z,97834.71
2019-05-14T22:37:10.398Z,97830.58
2019-05-14T22:42:18.739Z,97828.31
2019-05-14T22:47:23.009Z,97827.84
2019-05-14T22:52:31.121Z,97819.14
2019-05-14T22:57:35.641Z,97804.91
2019-05-14T23:02:40.867Z,97805.08
2019-05-14T23:07:48.433Z,97800.90
2019-05-14T23:12:53.033Z,97791.47
2019-05-14T23:17:58.863Z,97795.61
2019-05-14T23:23:04.736Z,97784.64
2019-05-14T23:28:09.735Z,97776.64
2019-05-14T23:33:14.920Z,97769.58
2019-05-14T23:38:20.449Z,97782.15
2019-05-14T23:43:25.798Z,97767.80
2019-05-14T23:48:30.931Z,97762.77
2019-05-14T23:53:38.825Z,97753.34
2019-05-14T23:58:54.912Z,97752.30
